Agnew, NE

4:29 PM CST on February 24, 2017 (GMT -0600)
G J FARMS | | Change Station
Active Advisory: Winter Weather Advisory

Elev 1296 ft 41.04 °N, 96.81 °W | Updated 24 seconds ago

Snow
Snow
24.3 °F
Feels Like 24 °F
N
0.0
Wind Variable Wind from North
Gusts 0.0 mph

Today
High -- | Low -- °F
--% Chance of Precip.
Yesterday
High -- | Low -- °F
Precip. -- in
Pressure 29.98 in
Visibility 4.0 miles
Clouds Few 2000 ft
Overcast 3900 ft
Windchill 24 °F
Dew Point 22 °F
Humidity 90%
Rainfall 0.00 in
Snow Depth Not available.
7:08 AM 6:12 PM
Waning Crescent, 3% visible
METAR KLNK 242154Z 34021G26KT 4SM -SN FEW020 OVC039 M03/M06 A2994 RMK AO2 PK WND 34031/2111 SLP152 P0000 T10331061
Pressure 29.98 in
Visibility 4.0 miles
Clouds Few 2000 ft
Overcast 3900 ft
Windchill 24 °F
Dew Point 22 °F
Humidity 90%
Rainfall 0.00 in
Snow Depth Not available.
7:08 AM 6:12 PM
Waning Crescent, 3% visible
METAR KLNK 242154Z 34021G26KT 4SM -SN FEW020 OVC039 M03/M06 A2994 RMK AO2 PK WND 34031/2111 SLP152 P0000 T10331061

Get Your Daily Forecast Email!

Thanks for signing up!

Be on the lookout for a verification email in your inbox.

You'll start receiving the daily forecast at 8 AM.

×

10-Day Weather Forecast

Almanac

Astronomy

Feb. 24, 2017 Rise Set
Actual Time
Civil Twilight
Nautical Twilight
Astronomical Twilight
Moon
Length of Visible Light
Length of Day
Tomorrow will be .
, % of the Moon is Illuminated

Today's Extremes

State Highs State Lows

Community

WunderPhotos

Upload Photos

1,962,540 photos uploaded!

WunderBlog® & News

Nearby

Air Quality

  Air Quality AQ Index Pollutant
Not available.

Snow Depth

Station Depth Elevation

Earthquake Activity

City Distance Mag. Time & Date
Minimum magnitude displayed is 2.5.

Coastal Water Temperatures

Place Temperature

Stations

Nearby Weather Stations

Station Location Temp. Windchill Dew Point Humidity Wind Precip. Elev Updated Type
                   

Watches & Warnings

Winter Weather Advisory
Issued: 2:58 PM CST Feb. 24, 2017 – National Weather Service

... Winter Weather Advisory remains in effect until 6 PM CST this
evening...

* timing... light snow will continue to taper off this afternoon
and slowly end this evening.

* Snow accumulations... additional snow accumulations late this
afternoon will be less than an inch.

* Impact... reduced visibilities due to snow and blowing snow will
make travel difficult.

Precautionary/preparedness actions...

A Winter Weather Advisory for snow and blowing snow means that
periods of snow with blowing snow will cause primarily travel
difficulties. Be prepared for snow covered roads and limited
visibilities, and use extra caution while driving.